UAL1549 KJFK-KRDU
Flight info
| Callsign | UAL1549 |
|---|---|
| Flight time | 1h 46m |
| Altitude | 36000 |
| Route | DCT WAVEY DCT EMJAY Q167 ZJAAY TAQLE3 |
| Aircraft | B738/M-SDE2E3FGHIRWXY/LB1 |
Departure
| Time | 2026-05-07 01:15 |
|---|---|
| Airport | John F. Kennedy International Airport (KJFK) |
Arrival
| Time | 2026-05-07 03:02 |
|---|---|
| Airport | Raleigh-Durham International Airport (KRDU) |
| Time | Latitude | Longitude | Altitude | Speed | Heading |
|---|---|---|---|---|---|
| 2026-05-07 01:01 | 40.64987 | -73.78136 | 19 ft | 0 kts | 297° |
| 2026-05-07 01:04 | 40.64986 | -73.78134 | 19 ft | 2 kts | 297° |
| 2026-05-07 01:04 | 40.64979 | -73.78115 | 19 ft | 2 kts | 297° |
| 2026-05-07 01:05 | 40.64971 | -73.78096 | 21 ft | 2 kts | 297° |
| 2026-05-07 01:05 | 40.64962 | -73.78078 | 21 ft | 2 kts | 329° |
| 2026-05-07 01:05 | 40.64954 | -73.78073 | 20 ft | 0 kts | 12° |
| 2026-05-07 01:06 | 40.64966 | -73.78073 | 22 ft | 4 kts | 356° |
| 2026-05-07 01:06 | 40.65013 | -73.78065 | 19 ft | 9 kts | 12° |
| 2026-05-07 01:06 | 40.65039 | -73.78056 | 19 ft | 0 kts | 14° |
| 2026-05-07 01:07 | 40.65042 | -73.78055 | 19 ft | 1 kts | 14° |
| 2026-05-07 01:07 | 40.65050 | -73.78052 | 19 ft | 2 kts | 14° |
| 2026-05-07 01:07 | 40.65067 | -73.78043 | 19 ft | 4 kts | 31° |
| 2026-05-07 01:07 | 40.65086 | -73.78003 | 19 ft | 7 kts | 83° |
| 2026-05-07 01:08 | 40.65066 | -73.77936 | 20 ft | 9 kts | 120° |
| 2026-05-07 01:08 | 40.65029 | -73.77856 | 20 ft | 12 kts | 120° |
| 2026-05-07 01:08 | 40.65013 | -73.77819 | 19 ft | 1 kts | 121° |
| 2026-05-07 01:08 | 40.65003 | -73.77797 | 21 ft | 4 kts | 121° |
| 2026-05-07 01:09 | 40.64983 | -73.77755 | 19 ft | 7 kts | 121° |
| 2026-05-07 01:09 | 40.64955 | -73.77694 | 19 ft | 9 kts | 121° |
| 2026-05-07 01:09 | 40.64920 | -73.77614 | 19 ft | 11 kts | 121° |
| 2026-05-07 01:09 | 40.64928 | -73.77521 | 20 ft | 13 kts | 44° |
| 2026-05-07 01:10 | 40.65003 | -73.77444 | 20 ft | 15 kts | 25° |
| 2026-05-07 01:10 | 40.65104 | -73.77393 | 19 ft | 16 kts | 30° |
| 2026-05-07 01:10 | 40.65133 | -73.77319 | 21 ft | 9 kts | 115° |
| 2026-05-07 01:10 | 40.65109 | -73.77267 | 20 ft | 11 kts | 122° |
| 2026-05-07 01:11 | 40.65068 | -73.77174 | 20 ft | 13 kts | 120° |
| 2026-05-07 01:11 | 40.65019 | -73.77069 | 21 ft | 14 kts | 119° |
| 2026-05-07 01:11 | 40.64946 | -73.76908 | 20 ft | 17 kts | 121° |
| 2026-05-07 01:11 | 40.64905 | -73.76818 | 20 ft | 15 kts | 121° |
| 2026-05-07 01:12 | 40.64873 | -73.76741 | 21 ft | 8 kts | 105° |
| 2026-05-07 01:12 | 40.64905 | -73.76679 | 21 ft | 10 kts | 34° |
| 2026-05-07 01:12 | 40.64973 | -73.76625 | 20 ft | 13 kts | 31° |
| 2026-05-07 01:12 | 40.65056 | -73.76561 | 20 ft | 15 kts | 30° |
| 2026-05-07 01:13 | 40.65099 | -73.76483 | 21 ft | 12 kts | 102° |
| 2026-05-07 01:13 | 40.65063 | -73.76390 | 22 ft | 12 kts | 129° |
| 2026-05-07 01:13 | 40.64984 | -73.76388 | 21 ft | 13 kts | 206° |
| 2026-05-07 01:13 | 40.64966 | -73.76400 | 21 ft | 0 kts | 208° |
| 2026-05-07 01:14 | 40.64954 | -73.76409 | 21 ft | 7 kts | 209° |
| 2026-05-07 01:15 | 40.64691 | -73.76615 | 20 ft | 83 kts | 210° |
| 2026-05-07 01:15 | 40.63986 | -73.77168 | 21 ft | 150 kts | 211° |
| 2026-05-07 01:15 | 40.62950 | -73.77980 | 317 ft | 183 kts | 211° |
| 2026-05-07 01:15 | 40.61826 | -73.78868 | 1146 ft | 193 kts | 213° |
| 2026-05-07 01:16 | 40.60608 | -73.79737 | 1816 ft | 206 kts | 212° |
| 2026-05-07 01:16 | 40.59302 | -73.80596 | 2458 ft | 213 kts | 212° |
| 2026-05-07 01:16 | 40.57960 | -73.81465 | 3210 ft | 214 kts | 211° |
| 2026-05-07 01:16 | 40.56527 | -73.81978 | 4020 ft | 225 kts | 182° |
| 2026-05-07 01:17 | 40.55023 | -73.81195 | 4692 ft | 248 kts | 144° |
| 2026-05-07 01:17 | 40.54048 | -73.79267 | 5218 ft | 273 kts | 113° |
| 2026-05-07 01:17 | 40.53502 | -73.76703 | 5529 ft | 298 kts | 108° |
| 2026-05-07 01:17 | 40.52985 | -73.74057 | 6128 ft | 306 kts | 108° |
| 2026-05-07 01:18 | 40.52455 | -73.71318 | 6807 ft | 311 kts | 108° |
| 2026-05-07 01:18 | 40.51856 | -73.68572 | 7476 ft | 313 kts | 120° |
| 2026-05-07 01:18 | 40.50540 | -73.66400 | 8157 ft | 299 kts | 150° |
| 2026-05-07 01:18 | 40.48855 | -73.64807 | 8857 ft | 300 kts | 153° |
| 2026-05-07 01:19 | 40.47116 | -73.63227 | 9508 ft | 307 kts | 153° |
| 2026-05-07 01:19 | 40.45359 | -73.61591 | 10200 ft | 310 kts | 153° |
| 2026-05-07 01:19 | 40.43626 | -73.59923 | 10834 ft | 317 kts | 152° |
| 2026-05-07 01:19 | 40.41810 | -73.58144 | 11075 ft | 337 kts | 151° |
| 2026-05-07 01:20 | 40.39880 | -73.56223 | 11252 ft | 359 kts | 150° |
| 2026-05-07 01:20 | 40.37843 | -73.54166 | 11413 ft | 379 kts | 149° |
| 2026-05-07 01:20 | 40.35711 | -73.51989 | 11598 ft | 396 kts | 148° |
| 2026-05-07 01:20 | 40.33526 | -73.49745 | 12097 ft | 402 kts | 148° |
| 2026-05-07 01:21 | 40.31317 | -73.47473 | 12745 ft | 404 kts | 149° |
| 2026-05-07 01:21 | 40.29098 | -73.45196 | 13391 ft | 406 kts | 149° |
| 2026-05-07 01:21 | 40.26859 | -73.42907 | 13940 ft | 410 kts | 149° |
| 2026-05-07 01:21 | 40.24594 | -73.40600 | 14412 ft | 415 kts | 149° |
| 2026-05-07 01:22 | 40.22293 | -73.38279 | 14879 ft | 419 kts | 150° |
| 2026-05-07 01:22 | 40.19920 | -73.36048 | 15362 ft | 421 kts | 152° |
| 2026-05-07 01:22 | 40.17510 | -73.33833 | 15844 ft | 425 kts | 152° |
| 2026-05-07 01:22 | 40.15078 | -73.31594 | 16307 ft | 429 kts | 153° |
| 2026-05-07 01:23 | 40.12435 | -73.29926 | 16670 ft | 416 kts | 173° |
| 2026-05-07 01:23 | 40.09653 | -73.29554 | 17059 ft | 404 kts | 191° |
| 2026-05-07 01:23 | 40.06935 | -73.30228 | 17580 ft | 393 kts | 205° |
| 2026-05-07 01:23 | 40.04442 | -73.31681 | 18048 ft | 385 kts | 219° |
| 2026-05-07 01:24 | 40.02365 | -73.33774 | 18472 ft | 381 kts | 226° |
| 2026-05-07 01:24 | 40.00363 | -73.36044 | 18948 ft | 381 kts | 227° |
| 2026-05-07 01:24 | 39.98363 | -73.38341 | 19432 ft | 382 kts | 227° |
| 2026-05-07 01:24 | 39.96365 | -73.40623 | 19898 ft | 383 kts | 227° |
| 2026-05-07 01:25 | 39.94350 | -73.42901 | 20358 ft | 384 kts | 227° |
| 2026-05-07 01:25 | 39.92318 | -73.45180 | 20749 ft | 386 kts | 227° |
| 2026-05-07 01:25 | 39.90268 | -73.47471 | 21109 ft | 389 kts | 227° |
| 2026-05-07 01:25 | 39.88208 | -73.49765 | 21553 ft | 390 kts | 227° |
| 2026-05-07 01:26 | 39.86143 | -73.52060 | 21996 ft | 390 kts | 228° |
| 2026-05-07 01:26 | 39.84071 | -73.54363 | 22413 ft | 391 kts | 228° |
| 2026-05-07 01:26 | 39.82026 | -73.56638 | 22806 ft | 393 kts | 228° |
| 2026-05-07 01:26 | 39.79939 | -73.58962 | 23041 ft | 396 kts | 228° |
| 2026-05-07 01:27 | 39.77835 | -73.61306 | 23033 ft | 398 kts | 228° |
| 2026-05-07 01:27 | 39.75731 | -73.63644 | 23026 ft | 395 kts | 228° |
| 2026-05-07 01:27 | 39.73650 | -73.65951 | 23027 ft | 394 kts | 228° |
| 2026-05-07 01:27 | 39.71560 | -73.68270 | 23039 ft | 395 kts | 228° |
| 2026-05-07 01:28 | 39.69466 | -73.70594 | 23043 ft | 396 kts | 228° |
| 2026-05-07 01:28 | 39.67369 | -73.72918 | 23061 ft | 397 kts | 228° |
| 2026-05-07 01:28 | 39.65255 | -73.75261 | 23353 ft | 400 kts | 228° |
| 2026-05-07 01:28 | 39.63145 | -73.77593 | 23799 ft | 397 kts | 228° |
| 2026-05-07 01:29 | 39.61045 | -73.79912 | 24148 ft | 397 kts | 228° |
| 2026-05-07 01:29 | 39.58966 | -73.82208 | 24428 ft | 399 kts | 229° |
| 2026-05-07 01:29 | 39.56823 | -73.84575 | 24694 ft | 400 kts | 229° |
| 2026-05-07 01:29 | 39.54696 | -73.86921 | 24975 ft | 402 kts | 229° |
| 2026-05-07 01:30 | 39.52591 | -73.89241 | 25265 ft | 403 kts | 229° |
| 2026-05-07 01:30 | 39.50456 | -73.91591 | 25558 ft | 404 kts | 229° |
| 2026-05-07 01:30 | 39.48302 | -73.93960 | 25829 ft | 405 kts | 229° |
| 2026-05-07 01:30 | 39.46154 | -73.96321 | 26095 ft | 406 kts | 229° |
| 2026-05-07 01:31 | 39.43991 | -73.98696 | 26394 ft | 407 kts | 229° |
| 2026-05-07 01:31 | 39.41837 | -74.01057 | 26796 ft | 404 kts | 229° |
| 2026-05-07 01:31 | 39.39705 | -74.03387 | 27394 ft | 397 kts | 229° |
| 2026-05-07 01:31 | 39.37606 | -74.05675 | 27930 ft | 393 kts | 229° |
| 2026-05-07 01:32 | 39.35521 | -74.07951 | 28197 ft | 394 kts | 229° |
| 2026-05-07 01:32 | 39.33419 | -74.10252 | 28372 ft | 397 kts | 229° |
| 2026-05-07 01:32 | 39.31312 | -74.12555 | 28719 ft | 396 kts | 229° |
| 2026-05-07 01:32 | 39.29209 | -74.14846 | 29213 ft | 392 kts | 229° |
| 2026-05-07 01:33 | 39.27137 | -74.17099 | 29714 ft | 389 kts | 230° |
| 2026-05-07 01:33 | 39.25074 | -74.19342 | 30120 ft | 387 kts | 230° |
| 2026-05-07 01:33 | 39.23021 | -74.21577 | 30421 ft | 386 kts | 230° |
| 2026-05-07 01:33 | 39.20965 | -74.23813 | 30722 ft | 385 kts | 230° |
| 2026-05-07 01:34 | 39.18921 | -74.26033 | 31057 ft | 384 kts | 230° |
| 2026-05-07 01:34 | 39.16907 | -74.28219 | 31301 ft | 383 kts | 230° |
| 2026-05-07 01:34 | 39.14852 | -74.30453 | 31376 ft | 388 kts | 230° |
| 2026-05-07 01:34 | 39.12781 | -74.32701 | 31618 ft | 389 kts | 230° |
| 2026-05-07 01:35 | 39.10718 | -74.34932 | 31995 ft | 386 kts | 230° |
| 2026-05-07 01:35 | 39.06599 | -74.39383 | 32030 ft | 385 kts | 229° |
| 2026-05-07 01:36 | 39.02534 | -74.43767 | 32055 ft | 379 kts | 230° |
| 2026-05-07 01:36 | 38.98508 | -74.48115 | 32021 ft | 379 kts | 229° |
| 2026-05-07 01:37 | 38.94459 | -74.52474 | 32035 ft | 380 kts | 229° |
| 2026-05-07 01:37 | 38.90515 | -74.56961 | 32049 ft | 378 kts | 231° |
| 2026-05-07 01:38 | 38.86650 | -74.61556 | 32048 ft | 379 kts | 231° |
| 2026-05-07 01:38 | 38.82756 | -74.66141 | 32044 ft | 381 kts | 231° |
| 2026-05-07 01:39 | 38.78859 | -74.70697 | 31989 ft | 382 kts | 231° |
| 2026-05-07 01:39 | 38.74916 | -74.75281 | 32031 ft | 384 kts | 230° |
| 2026-05-07 01:40 | 38.70778 | -74.79671 | 32040 ft | 388 kts | 227° |
| 2026-05-07 01:40 | 38.66565 | -74.84004 | 32033 ft | 389 kts | 227° |
| 2026-05-07 01:41 | 38.62344 | -74.88373 | 32033 ft | 390 kts | 228° |
| 2026-05-07 01:41 | 38.58146 | -74.92732 | 32012 ft | 391 kts | 227° |
| 2026-05-07 01:42 | 38.53923 | -74.97115 | 32035 ft | 393 kts | 227° |
| 2026-05-07 01:42 | 38.49701 | -75.01694 | 32060 ft | 402 kts | 229° |
| 2026-05-07 01:43 | 38.45394 | -75.06403 | 32070 ft | 413 kts | 225° |
| 2026-05-07 01:43 | 38.40794 | -75.10769 | 32056 ft | 411 kts | 225° |
| 2026-05-07 01:44 | 38.36230 | -75.15062 | 32051 ft | 410 kts | 225° |
| 2026-05-07 01:44 | 38.31644 | -75.19398 | 32055 ft | 411 kts | 225° |
| 2026-05-07 01:45 | 38.27046 | -75.23752 | 32054 ft | 412 kts | 225° |
| 2026-05-07 01:45 | 38.22445 | -75.28105 | 32053 ft | 412 kts | 225° |
| 2026-05-07 01:46 | 38.17864 | -75.32432 | 32032 ft | 413 kts | 225° |
| 2026-05-07 01:46 | 38.13237 | -75.36795 | 32041 ft | 415 kts | 224° |
| 2026-05-07 01:47 | 38.08590 | -75.41169 | 32047 ft | 416 kts | 224° |
| 2026-05-07 01:47 | 38.03985 | -75.45604 | 32042 ft | 412 kts | 228° |
| 2026-05-07 01:48 | 37.99792 | -75.50482 | 32037 ft | 408 kts | 231° |
| 2026-05-07 01:48 | 37.95685 | -75.55444 | 32060 ft | 408 kts | 230° |
| 2026-05-07 01:49 | 37.91548 | -75.60354 | 32069 ft | 410 kts | 230° |
| 2026-05-07 01:49 | 37.87359 | -75.65261 | 32064 ft | 411 kts | 230° |
| 2026-05-07 01:50 | 37.83139 | -75.70179 | 32063 ft | 411 kts | 230° |
| 2026-05-07 01:50 | 37.78935 | -75.75070 | 32068 ft | 412 kts | 230° |
| 2026-05-07 01:51 | 37.74713 | -75.79976 | 32077 ft | 413 kts | 230° |
| 2026-05-07 01:51 | 37.70482 | -75.84886 | 32067 ft | 413 kts | 230° |
| 2026-05-07 01:51 | 37.68379 | -75.87319 | 31881 ft | 405 kts | 230° |
| 2026-05-07 01:52 | 37.66310 | -75.89714 | 31179 ft | 404 kts | 229° |
| 2026-05-07 01:52 | 37.64217 | -75.92142 | 30245 ft | 411 kts | 227° |
| 2026-05-07 01:52 | 37.62086 | -75.94610 | 29088 ft | 420 kts | 227° |
| 2026-05-07 01:52 | 37.59948 | -75.97157 | 27926 ft | 424 kts | 231° |
| 2026-05-07 01:53 | 37.58010 | -75.99982 | 26786 ft | 427 kts | 235° |
| 2026-05-07 01:53 | 37.56155 | -76.02920 | 25706 ft | 431 kts | 236° |
| 2026-05-07 01:53 | 37.54303 | -76.05903 | 25083 ft | 427 kts | 236° |
| 2026-05-07 01:53 | 37.52525 | -76.08743 | 24967 ft | 410 kts | 236° |
| 2026-05-07 01:54 | 37.50778 | -76.11499 | 24842 ft | 395 kts | 236° |
| 2026-05-07 01:54 | 37.49068 | -76.14177 | 24265 ft | 393 kts | 236° |
| 2026-05-07 01:54 | 37.47345 | -76.16865 | 23616 ft | 393 kts | 237° |
| 2026-05-07 01:54 | 37.45618 | -76.19549 | 23434 ft | 397 kts | 237° |
| 2026-05-07 01:55 | 37.43879 | -76.22244 | 23302 ft | 395 kts | 237° |
| 2026-05-07 01:55 | 37.42143 | -76.24926 | 23147 ft | 394 kts | 237° |
| 2026-05-07 01:55 | 37.40413 | -76.27595 | 23054 ft | 393 kts | 236° |
| 2026-05-07 01:55 | 37.38706 | -76.30228 | 23005 ft | 393 kts | 236° |
| 2026-05-07 01:56 | 37.37001 | -76.32852 | 23006 ft | 379 kts | 236° |
| 2026-05-07 01:56 | 37.35364 | -76.35362 | 23001 ft | 363 kts | 236° |
| 2026-05-07 01:56 | 37.33794 | -76.37772 | 23002 ft | 348 kts | 236° |
| 2026-05-07 01:56 | 37.32772 | -76.39342 | 22998 ft | 338 kts | 237° |
| 2026-05-07 01:57 | 37.31318 | -76.41583 | 23005 ft | 333 kts | 237° |
| 2026-05-07 01:57 | 37.29853 | -76.43846 | 23026 ft | 335 kts | 237° |
| 2026-05-07 01:57 | 37.28363 | -76.46140 | 23033 ft | 339 kts | 237° |
| 2026-05-07 01:57 | 37.26864 | -76.48442 | 23030 ft | 343 kts | 237° |
| 2026-05-07 01:58 | 37.25351 | -76.50770 | 23060 ft | 344 kts | 237° |
| 2026-05-07 01:58 | 37.23846 | -76.53107 | 23039 ft | 337 kts | 237° |
| 2026-05-07 01:58 | 37.22408 | -76.55352 | 23026 ft | 332 kts | 237° |
| 2026-05-07 01:58 | 37.20959 | -76.57618 | 23033 ft | 334 kts | 237° |
| 2026-05-07 01:59 | 37.19501 | -76.59900 | 23035 ft | 336 kts | 237° |
| 2026-05-07 01:59 | 37.18037 | -76.62189 | 23010 ft | 337 kts | 236° |
| 2026-05-07 01:59 | 37.16563 | -76.64488 | 23025 ft | 339 kts | 236° |
| 2026-05-07 01:59 | 37.15100 | -76.66766 | 23031 ft | 341 kts | 236° |
| 2026-05-07 02:00 | 37.13613 | -76.69081 | 23030 ft | 342 kts | 237° |
| 2026-05-07 02:00 | 37.12119 | -76.71407 | 23028 ft | 343 kts | 236° |
| 2026-05-07 02:00 | 37.10619 | -76.73735 | 23027 ft | 343 kts | 236° |
| 2026-05-07 02:00 | 37.09120 | -76.76060 | 23026 ft | 343 kts | 236° |
| 2026-05-07 02:01 | 37.07624 | -76.78380 | 23030 ft | 342 kts | 236° |
| 2026-05-07 02:01 | 37.06128 | -76.80698 | 23027 ft | 341 kts | 236° |
| 2026-05-07 02:01 | 37.04639 | -76.83004 | 23029 ft | 341 kts | 236° |
| 2026-05-07 02:01 | 37.03151 | -76.85309 | 23026 ft | 340 kts | 236° |
| 2026-05-07 02:02 | 37.01664 | -76.87611 | 23051 ft | 339 kts | 236° |
| 2026-05-07 02:02 | 37.00183 | -76.89902 | 23041 ft | 338 kts | 236° |
| 2026-05-07 02:02 | 36.98705 | -76.92183 | 22995 ft | 337 kts | 236° |
| 2026-05-07 02:02 | 36.97233 | -76.94454 | 23027 ft | 336 kts | 236° |
| 2026-05-07 02:03 | 36.95755 | -76.96728 | 23034 ft | 338 kts | 236° |
| 2026-05-07 02:03 | 36.94278 | -76.99001 | 23041 ft | 340 kts | 236° |
| 2026-05-07 02:03 | 36.92786 | -77.01295 | 23042 ft | 342 kts | 236° |
| 2026-05-07 02:03 | 36.91285 | -77.03602 | 23047 ft | 343 kts | 236° |
| 2026-05-07 02:04 | 36.89773 | -77.05924 | 23036 ft | 345 kts | 236° |
| 2026-05-07 02:04 | 36.88256 | -77.08253 | 23035 ft | 346 kts | 236° |
| 2026-05-07 02:04 | 36.86726 | -77.10599 | 23033 ft | 346 kts | 236° |
| 2026-05-07 02:04 | 36.85202 | -77.12934 | 23035 ft | 346 kts | 236° |
| 2026-05-07 02:05 | 36.83700 | -77.15235 | 23031 ft | 345 kts | 236° |
| 2026-05-07 02:05 | 36.82183 | -77.17557 | 23030 ft | 344 kts | 236° |
| 2026-05-07 02:05 | 36.80672 | -77.19867 | 23028 ft | 343 kts | 236° |
| 2026-05-07 02:05 | 36.79164 | -77.22172 | 23051 ft | 342 kts | 236° |
| 2026-05-07 02:06 | 36.77646 | -77.24462 | 23050 ft | 341 kts | 236° |
| 2026-05-07 02:06 | 36.76126 | -77.26727 | 23056 ft | 340 kts | 236° |
| 2026-05-07 02:06 | 36.74608 | -77.28982 | 23061 ft | 339 kts | 236° |
| 2026-05-07 02:06 | 36.73110 | -77.31206 | 23072 ft | 338 kts | 236° |
| 2026-05-07 02:07 | 36.71601 | -77.33446 | 23074 ft | 337 kts | 236° |
| 2026-05-07 02:07 | 36.68582 | -77.37930 | 23089 ft | 337 kts | 236° |
| 2026-05-07 02:07 | 36.67075 | -77.40168 | 23083 ft | 337 kts | 236° |
| 2026-05-07 02:08 | 36.65566 | -77.42408 | 23089 ft | 338 kts | 236° |
| 2026-05-07 02:08 | 36.64052 | -77.44653 | 23084 ft | 338 kts | 236° |
| 2026-05-07 02:08 | 36.62536 | -77.46901 | 23080 ft | 339 kts | 236° |
| 2026-05-07 02:08 | 36.61019 | -77.49148 | 23085 ft | 339 kts | 236° |
| 2026-05-07 02:09 | 36.59497 | -77.51402 | 23083 ft | 340 kts | 236° |
| 2026-05-07 02:09 | 36.57974 | -77.53654 | 23078 ft | 340 kts | 236° |
| 2026-05-07 02:09 | 36.56445 | -77.55914 | 23074 ft | 341 kts | 236° |
| 2026-05-07 02:09 | 36.54937 | -77.58143 | 23047 ft | 342 kts | 236° |
| 2026-05-07 02:10 | 36.53426 | -77.60371 | 23035 ft | 334 kts | 236° |
| 2026-05-07 02:10 | 36.51946 | -77.62545 | 23039 ft | 321 kts | 236° |
| 2026-05-07 02:10 | 36.50528 | -77.64626 | 23039 ft | 307 kts | 236° |
| 2026-05-07 02:10 | 36.49174 | -77.66616 | 23033 ft | 296 kts | 237° |
| 2026-05-07 02:11 | 36.47861 | -77.68548 | 23063 ft | 292 kts | 237° |
| 2026-05-07 02:11 | 36.46544 | -77.70496 | 23072 ft | 297 kts | 237° |
| 2026-05-07 02:11 | 36.45205 | -77.72476 | 23074 ft | 301 kts | 237° |
| 2026-05-07 02:11 | 36.43866 | -77.74448 | 23051 ft | 294 kts | 237° |
| 2026-05-07 02:12 | 36.42566 | -77.76351 | 23039 ft | 282 kts | 237° |
| 2026-05-07 02:12 | 36.41338 | -77.78147 | 23040 ft | 270 kts | 237° |
| 2026-05-07 02:12 | 36.40147 | -77.79891 | 23043 ft | 259 kts | 237° |
| 2026-05-07 02:12 | 36.38996 | -77.81581 | 23050 ft | 258 kts | 237° |
| 2026-05-07 02:13 | 36.37819 | -77.83319 | 23068 ft | 268 kts | 237° |
| 2026-05-07 02:13 | 36.36598 | -77.85120 | 23046 ft | 275 kts | 237° |
| 2026-05-07 02:13 | 36.35342 | -77.86963 | 23044 ft | 275 kts | 237° |
| 2026-05-07 02:13 | 36.34108 | -77.88767 | 23041 ft | 274 kts | 237° |
| 2026-05-07 02:14 | 36.32878 | -77.90566 | 23043 ft | 273 kts | 237° |
| 2026-05-07 02:14 | 36.31667 | -77.92335 | 23041 ft | 272 kts | 237° |
| 2026-05-07 02:14 | 36.30443 | -77.94124 | 23042 ft | 271 kts | 237° |
| 2026-05-07 02:14 | 36.29222 | -77.95908 | 23059 ft | 270 kts | 237° |
| 2026-05-07 02:15 | 36.28005 | -77.97687 | 23052 ft | 270 kts | 237° |
| 2026-05-07 02:15 | 36.26792 | -77.99458 | 23049 ft | 269 kts | 237° |
| 2026-05-07 02:15 | 36.25578 | -78.01228 | 23046 ft | 269 kts | 237° |
| 2026-05-07 02:15 | 36.24364 | -78.02997 | 23049 ft | 269 kts | 237° |
| 2026-05-07 02:16 | 36.23176 | -78.04779 | 23046 ft | 266 kts | 243° |
| 2026-05-07 02:16 | 36.22348 | -78.06777 | 23070 ft | 259 kts | 251° |
| 2026-05-07 02:16 | 36.21612 | -78.08826 | 23054 ft | 260 kts | 251° |
| 2026-05-07 02:16 | 36.20941 | -78.10893 | 23029 ft | 257 kts | 263° |
| 2026-05-07 02:17 | 36.21102 | -78.13010 | 23077 ft | 254 kts | 290° |
| 2026-05-07 02:17 | 36.21968 | -78.14950 | 23071 ft | 260 kts | 296° |
| 2026-05-07 02:17 | 36.22934 | -78.16855 | 23067 ft | 262 kts | 297° |
| 2026-05-07 02:17 | 36.23934 | -78.18794 | 23066 ft | 264 kts | 297° |
| 2026-05-07 02:18 | 36.24931 | -78.20720 | 23065 ft | 266 kts | 297° |
| 2026-05-07 02:18 | 36.25778 | -78.22703 | 23034 ft | 262 kts | 281° |
| 2026-05-07 02:18 | 36.25973 | -78.24925 | 23064 ft | 260 kts | 272° |
| 2026-05-07 02:18 | 36.26032 | -78.27177 | 23063 ft | 261 kts | 271° |
| 2026-05-07 02:19 | 36.26078 | -78.29426 | 23055 ft | 262 kts | 271° |
| 2026-05-07 02:19 | 36.26118 | -78.31679 | 23058 ft | 261 kts | 271° |
| 2026-05-07 02:19 | 36.26155 | -78.33931 | 23052 ft | 261 kts | 270° |
| 2026-05-07 02:19 | 36.26156 | -78.36181 | 23055 ft | 260 kts | 270° |
| 2026-05-07 02:20 | 36.26154 | -78.38419 | 23052 ft | 260 kts | 270° |
| 2026-05-07 02:20 | 36.26152 | -78.40656 | 23054 ft | 258 kts | 270° |
| 2026-05-07 02:20 | 36.26151 | -78.42876 | 23057 ft | 257 kts | 270° |
| 2026-05-07 02:20 | 36.26150 | -78.45067 | 23057 ft | 257 kts | 270° |
| 2026-05-07 02:21 | 36.26149 | -78.47271 | 23063 ft | 256 kts | 270° |
| 2026-05-07 02:21 | 36.26149 | -78.49474 | 23059 ft | 255 kts | 270° |
| 2026-05-07 02:21 | 36.26148 | -78.51671 | 23065 ft | 254 kts | 270° |
| 2026-05-07 02:21 | 36.26148 | -78.53862 | 23061 ft | 254 kts | 270° |
| 2026-05-07 02:22 | 36.26150 | -78.56052 | 23064 ft | 254 kts | 270° |
| 2026-05-07 02:22 | 36.26153 | -78.58240 | 23069 ft | 254 kts | 270° |
| 2026-05-07 02:22 | 36.26156 | -78.60405 | 23062 ft | 254 kts | 270° |
| 2026-05-07 02:22 | 36.26161 | -78.62624 | 23063 ft | 255 kts | 270° |
| 2026-05-07 02:23 | 36.26166 | -78.64795 | 23064 ft | 255 kts | 270° |
| 2026-05-07 02:23 | 36.26172 | -78.67003 | 23066 ft | 256 kts | 270° |
| 2026-05-07 02:23 | 36.26179 | -78.69210 | 23087 ft | 256 kts | 270° |
| 2026-05-07 02:23 | 36.26188 | -78.71422 | 23058 ft | 256 kts | 270° |
| 2026-05-07 02:24 | 36.26199 | -78.73623 | 23051 ft | 255 kts | 270° |
| 2026-05-07 02:24 | 36.26211 | -78.75812 | 23056 ft | 254 kts | 270° |
| 2026-05-07 02:24 | 36.26224 | -78.77989 | 23063 ft | 252 kts | 270° |
| 2026-05-07 02:24 | 36.26237 | -78.80159 | 23062 ft | 250 kts | 270° |
| 2026-05-07 02:25 | 36.26249 | -78.82284 | 23060 ft | 249 kts | 270° |
| 2026-05-07 02:25 | 36.26262 | -78.84422 | 23068 ft | 247 kts | 270° |
| 2026-05-07 02:25 | 36.26275 | -78.86544 | 23070 ft | 246 kts | 270° |
| 2026-05-07 02:25 | 36.26289 | -78.88664 | 23080 ft | 246 kts | 270° |
| 2026-05-07 02:26 | 36.26303 | -78.90781 | 23075 ft | 245 kts | 270° |
| 2026-05-07 02:26 | 36.26317 | -78.92901 | 23062 ft | 246 kts | 271° |
| 2026-05-07 02:26 | 36.26332 | -78.95023 | 23076 ft | 246 kts | 270° |
| 2026-05-07 02:26 | 36.26348 | -78.97153 | 23073 ft | 247 kts | 271° |
| 2026-05-07 02:27 | 36.26365 | -78.99286 | 23086 ft | 249 kts | 271° |
| 2026-05-07 02:27 | 36.26383 | -79.01434 | 23073 ft | 250 kts | 271° |
| 2026-05-07 02:27 | 36.26400 | -79.03592 | 23080 ft | 251 kts | 271° |
| 2026-05-07 02:27 | 36.26413 | -79.05762 | 23069 ft | 252 kts | 268° |
| 2026-05-07 02:28 | 36.25994 | -79.07865 | 23080 ft | 255 kts | 250° |
| 2026-05-07 02:28 | 36.25171 | -79.09831 | 23066 ft | 258 kts | 246° |
| 2026-05-07 02:28 | 36.24292 | -79.11734 | 23048 ft | 258 kts | 246° |
| 2026-05-07 02:28 | 36.23386 | -79.13648 | 23053 ft | 258 kts | 246° |
| 2026-05-07 02:29 | 36.22474 | -79.15561 | 23065 ft | 257 kts | 246° |
| 2026-05-07 02:29 | 36.21561 | -79.17468 | 23063 ft | 257 kts | 246° |
| 2026-05-07 02:29 | 36.20649 | -79.19371 | 23058 ft | 257 kts | 246° |
| 2026-05-07 02:29 | 36.19735 | -79.21275 | 23057 ft | 257 kts | 246° |
| 2026-05-07 02:30 | 36.18823 | -79.23175 | 23053 ft | 256 kts | 246° |
| 2026-05-07 02:30 | 36.17910 | -79.25076 | 23042 ft | 256 kts | 246° |
| 2026-05-07 02:30 | 36.16998 | -79.26975 | 23045 ft | 256 kts | 246° |
| 2026-05-07 02:30 | 36.16088 | -79.28874 | 23026 ft | 256 kts | 246° |
| 2026-05-07 02:31 | 36.15189 | -79.30746 | 23049 ft | 256 kts | 246° |
| 2026-05-07 02:31 | 36.14278 | -79.32640 | 23043 ft | 256 kts | 243° |
| 2026-05-07 02:31 | 36.12943 | -79.34179 | 23044 ft | 278 kts | 215° |
| 2026-05-07 02:31 | 36.10952 | -79.34638 | 23030 ft | 310 kts | 185° |
| 2026-05-07 02:32 | 36.08814 | -79.33751 | 23063 ft | 345 kts | 156° |
| 2026-05-07 02:32 | 36.07028 | -79.31590 | 23052 ft | 376 kts | 127° |
| 2026-05-07 02:32 | 36.06060 | -79.28542 | 23051 ft | 389 kts | 99° |
| 2026-05-07 02:32 | 36.06145 | -79.25223 | 23054 ft | 386 kts | 73° |
| 2026-05-07 02:33 | 36.06872 | -79.22085 | 23046 ft | 384 kts | 68° |
| 2026-05-07 02:33 | 36.07737 | -79.18955 | 23045 ft | 384 kts | 66° |
| 2026-05-07 02:33 | 36.08627 | -79.15840 | 23051 ft | 385 kts | 66° |
| 2026-05-07 02:33 | 36.09530 | -79.12702 | 23044 ft | 386 kts | 66° |
| 2026-05-07 02:34 | 36.10432 | -79.09584 | 23053 ft | 386 kts | 66° |
| 2026-05-07 02:34 | 36.11339 | -79.06460 | 23054 ft | 386 kts | 66° |
| 2026-05-07 02:34 | 36.12247 | -79.03332 | 23057 ft | 385 kts | 66° |
| 2026-05-07 02:34 | 36.13147 | -79.00236 | 23025 ft | 380 kts | 66° |
| 2026-05-07 02:35 | 36.14034 | -78.97175 | 22871 ft | 375 kts | 66° |
| 2026-05-07 02:35 | 36.14909 | -78.94153 | 22572 ft | 373 kts | 66° |
| 2026-05-07 02:35 | 36.15774 | -78.91165 | 22230 ft | 373 kts | 66° |
| 2026-05-07 02:35 | 36.16648 | -78.88152 | 21908 ft | 371 kts | 66° |
| 2026-05-07 02:36 | 36.17510 | -78.85174 | 21823 ft | 362 kts | 66° |
| 2026-05-07 02:36 | 36.18344 | -78.82278 | 21689 ft | 354 kts | 66° |
| 2026-05-07 02:36 | 36.19167 | -78.79420 | 21411 ft | 352 kts | 65° |
| 2026-05-07 02:36 | 36.19990 | -78.76564 | 21087 ft | 352 kts | 65° |
| 2026-05-07 02:37 | 36.20811 | -78.73716 | 20796 ft | 350 kts | 65° |
| 2026-05-07 02:37 | 36.21628 | -78.70881 | 20546 ft | 349 kts | 65° |
| 2026-05-07 02:37 | 36.22452 | -78.68030 | 20119 ft | 353 kts | 66° |
| 2026-05-07 02:37 | 36.23278 | -78.65184 | 19925 ft | 348 kts | 65° |
| 2026-05-07 02:38 | 36.24091 | -78.62380 | 19705 ft | 345 kts | 65° |
| 2026-05-07 02:38 | 36.24903 | -78.59584 | 19404 ft | 345 kts | 65° |
| 2026-05-07 02:38 | 36.25715 | -78.56793 | 19125 ft | 344 kts | 65° |
| 2026-05-07 02:38 | 36.26525 | -78.54009 | 18864 ft | 343 kts | 65° |
| 2026-05-07 02:39 | 36.27334 | -78.51235 | 18607 ft | 341 kts | 65° |
| 2026-05-07 02:39 | 36.28139 | -78.48476 | 18358 ft | 340 kts | 65° |
| 2026-05-07 02:39 | 36.28943 | -78.45721 | 18086 ft | 338 kts | 65° |
| 2026-05-07 02:39 | 36.29742 | -78.42989 | 17801 ft | 337 kts | 65° |
| 2026-05-07 02:40 | 36.30531 | -78.40307 | 17544 ft | 334 kts | 65° |
| 2026-05-07 02:40 | 36.31330 | -78.37608 | 17285 ft | 332 kts | 65° |
| 2026-05-07 02:40 | 36.32129 | -78.34928 | 17017 ft | 330 kts | 65° |
| 2026-05-07 02:40 | 36.32929 | -78.32271 | 16762 ft | 328 kts | 65° |
| 2026-05-07 02:41 | 36.33729 | -78.29637 | 16513 ft | 325 kts | 65° |
| 2026-05-07 02:41 | 36.34527 | -78.27022 | 16256 ft | 324 kts | 68° |
| 2026-05-07 02:41 | 36.34850 | -78.24276 | 15933 ft | 323 kts | 101° |
| 2026-05-07 02:41 | 36.34128 | -78.21718 | 15663 ft | 310 kts | 128° |
| 2026-05-07 02:42 | 36.32976 | -78.19491 | 15430 ft | 305 kts | 130° |
| 2026-05-07 02:42 | 36.31796 | -78.17324 | 15166 ft | 301 kts | 137° |
| 2026-05-07 02:42 | 36.30208 | -78.15752 | 14560 ft | 291 kts | 167° |
| 2026-05-07 02:42 | 36.28221 | -78.15432 | 13580 ft | 293 kts | 200° |
| 2026-05-07 02:43 | 36.26464 | -78.16648 | 13395 ft | 297 kts | 231° |
| 2026-05-07 02:43 | 36.25370 | -78.18806 | 13303 ft | 305 kts | 243° |
| 2026-05-07 02:43 | 36.24101 | -78.20957 | 13167 ft | 312 kts | 229° |
| 2026-05-07 02:43 | 36.22457 | -78.22703 | 12939 ft | 312 kts | 220° |
| 2026-05-07 02:44 | 36.21245 | -78.23726 | 12726 ft | 311 kts | 217° |
| 2026-05-07 02:44 | 36.18797 | -78.25574 | 12168 ft | 312 kts | 215° |
| 2026-05-07 02:44 | 36.17532 | -78.26497 | 11895 ft | 312 kts | 215° |
| 2026-05-07 02:44 | 36.15883 | -78.28132 | 11635 ft | 297 kts | 235° |
| 2026-05-07 02:45 | 36.14814 | -78.30231 | 11578 ft | 282 kts | 248° |
| 2026-05-07 02:45 | 36.14232 | -78.32485 | 11509 ft | 270 kts | 257° |
| 2026-05-07 02:45 | 36.13839 | -78.34684 | 11439 ft | 260 kts | 256° |
| 2026-05-07 02:45 | 36.12964 | -78.36585 | 11345 ft | 257 kts | 226° |
| 2026-05-07 02:46 | 36.11553 | -78.37891 | 11309 ft | 249 kts | 220° |
| 2026-05-07 02:46 | 36.10156 | -78.39099 | 11246 ft | 240 kts | 220° |
| 2026-05-07 02:46 | 36.08804 | -78.40252 | 11178 ft | 231 kts | 220° |
| 2026-05-07 02:46 | 36.07494 | -78.41358 | 11048 ft | 226 kts | 220° |
| 2026-05-07 02:47 | 36.06162 | -78.42483 | 10498 ft | 238 kts | 220° |
| 2026-05-07 02:47 | 36.04784 | -78.43661 | 10001 ft | 248 kts | 220° |
| 2026-05-07 02:47 | 36.03321 | -78.44924 | 9437 ft | 259 kts | 220° |
| 2026-05-07 02:47 | 36.01822 | -78.46232 | 8840 ft | 269 kts | 220° |
| 2026-05-07 02:48 | 36.00248 | -78.47519 | 8292 ft | 281 kts | 209° |
| 2026-05-07 02:48 | 35.98318 | -78.47864 | 8220 ft | 288 kts | 177° |
| 2026-05-07 02:48 | 35.96480 | -78.46862 | 8131 ft | 295 kts | 144° |
| 2026-05-07 02:48 | 35.95152 | -78.44941 | 8095 ft | 291 kts | 131° |
| 2026-05-07 02:49 | 35.93983 | -78.42942 | 8002 ft | 283 kts | 130° |
| 2026-05-07 02:49 | 35.92861 | -78.41000 | 7923 ft | 274 kts | 130° |
| 2026-05-07 02:49 | 35.91928 | -78.38982 | 7803 ft | 272 kts | 107° |
| 2026-05-07 02:49 | 35.91921 | -78.36678 | 7547 ft | 272 kts | 69° |
| 2026-05-07 02:50 | 35.92898 | -78.34733 | 7196 ft | 267 kts | 41° |
| 2026-05-07 02:50 | 35.94198 | -78.33082 | 6860 ft | 271 kts | 40° |
| 2026-05-07 02:50 | 35.95536 | -78.31411 | 6478 ft | 277 kts | 40° |
| 2026-05-07 02:50 | 35.97064 | -78.29989 | 6004 ft | 274 kts | 14° |
| 2026-05-07 02:51 | 35.98884 | -78.29776 | 5570 ft | 258 kts | 338° |
| 2026-05-07 02:51 | 36.00398 | -78.30797 | 5167 ft | 246 kts | 311° |
| 2026-05-07 02:51 | 36.01683 | -78.32226 | 4736 ft | 252 kts | 311° |
| 2026-05-07 02:51 | 36.02990 | -78.33701 | 4294 ft | 257 kts | 310° |
| 2026-05-07 02:52 | 36.04303 | -78.35194 | 4120 ft | 252 kts | 310° |
| 2026-05-07 02:52 | 36.05557 | -78.36610 | 4081 ft | 241 kts | 310° |
| 2026-05-07 02:52 | 36.06772 | -78.37976 | 4014 ft | 232 kts | 310° |
| 2026-05-07 02:52 | 36.07947 | -78.39289 | 3929 ft | 223 kts | 310° |
| 2026-05-07 02:53 | 36.09085 | -78.40559 | 3787 ft | 218 kts | 310° |
| 2026-05-07 02:53 | 36.10203 | -78.41801 | 3561 ft | 216 kts | 310° |
| 2026-05-07 02:53 | 36.11297 | -78.43069 | 3307 ft | 212 kts | 300° |
| 2026-05-07 02:53 | 36.11720 | -78.44638 | 3108 ft | 195 kts | 258° |
| 2026-05-07 02:54 | 36.11348 | -78.46248 | 3100 ft | 197 kts | 250° |
| 2026-05-07 02:54 | 36.10932 | -78.47870 | 3074 ft | 198 kts | 248° |
| 2026-05-07 02:54 | 36.10249 | -78.49316 | 3090 ft | 195 kts | 232° |
| 2026-05-07 02:54 | 36.09461 | -78.50685 | 3074 ft | 194 kts | 236° |
| 2026-05-07 02:55 | 36.08719 | -78.52064 | 3066 ft | 191 kts | 237° |
| 2026-05-07 02:55 | 36.07867 | -78.53300 | 3062 ft | 186 kts | 224° |
| 2026-05-07 02:55 | 36.06964 | -78.54374 | 3051 ft | 173 kts | 226° |
| 2026-05-07 02:55 | 36.06139 | -78.55383 | 3044 ft | 164 kts | 226° |
| 2026-05-07 02:56 | 36.05493 | -78.56520 | 3056 ft | 163 kts | 248° |
| 2026-05-07 02:56 | 36.05143 | -78.57867 | 3083 ft | 166 kts | 250° |
| 2026-05-07 02:56 | 36.04769 | -78.59202 | 3059 ft | 163 kts | 236° |
| 2026-05-07 02:56 | 36.03961 | -78.60167 | 3074 ft | 163 kts | 221° |
| 2026-05-07 02:57 | 36.03098 | -78.61081 | 3058 ft | 165 kts | 224° |
| 2026-05-07 02:57 | 36.02242 | -78.62040 | 3060 ft | 167 kts | 225° |
| 2026-05-07 02:57 | 36.01408 | -78.63008 | 3065 ft | 166 kts | 226° |
| 2026-05-07 02:57 | 36.00568 | -78.64008 | 3076 ft | 166 kts | 225° |
| 2026-05-07 02:58 | 35.99760 | -78.64983 | 3043 ft | 164 kts | 226° |
| 2026-05-07 02:58 | 35.98929 | -78.66010 | 2715 ft | 174 kts | 227° |
| 2026-05-07 02:58 | 35.98122 | -78.67127 | 2503 ft | 173 kts | 231° |
| 2026-05-07 02:58 | 35.97355 | -78.68237 | 2374 ft | 165 kts | 228° |
| 2026-05-07 02:59 | 35.96544 | -78.69226 | 2105 ft | 162 kts | 221° |
| 2026-05-07 02:59 | 35.95714 | -78.70131 | 1980 ft | 159 kts | 224° |
| 2026-05-07 02:59 | 35.94949 | -78.71101 | 1861 ft | 156 kts | 224° |
| 2026-05-07 02:59 | 35.94160 | -78.71991 | 1704 ft | 151 kts | 220° |
| 2026-05-07 03:00 | 35.93410 | -78.72820 | 1639 ft | 134 kts | 225° |
| 2026-05-07 03:00 | 35.92798 | -78.73604 | 1462 ft | 120 kts | 223° |
| 2026-05-07 03:00 | 35.92212 | -78.74284 | 1293 ft | 112 kts | 225° |
| 2026-05-07 03:00 | 35.91674 | -78.75018 | 1154 ft | 124 kts | 225° |
| 2026-05-07 03:01 | 35.91024 | -78.75804 | 1125 ft | 137 kts | 222° |
| 2026-05-07 03:01 | 35.90326 | -78.76662 | 878 ft | 146 kts | 226° |
| 2026-05-07 03:01 | 35.89586 | -78.77569 | 620 ft | 147 kts | 224° |
| 2026-05-07 03:01 | 35.88885 | -78.78423 | 427 ft | 132 kts | 224° |
| 2026-05-07 03:02 | 35.88455 | -78.78945 | 421 ft | 35 kts | 225° |
| 2026-05-07 03:02 | 35.88342 | -78.79065 | 425 ft | 15 kts | 203° |
| 2026-05-07 03:02 | 35.88278 | -78.79064 | 424 ft | 0 kts | 144° |
| 2026-05-07 03:03 | 35.88253 | -78.79050 | 427 ft | 7 kts | 165° |
| 2026-05-07 03:03 | 35.88202 | -78.79075 | 427 ft | 9 kts | 219° |
| 2026-05-07 03:03 | 35.88157 | -78.79127 | 429 ft | 9 kts | 226° |
| 2026-05-07 03:03 | 35.88114 | -78.79182 | 425 ft | 9 kts | 226° |
| 2026-05-07 03:04 | 35.88064 | -78.79243 | 428 ft | 11 kts | 224° |
| 2026-05-07 03:04 | 35.87993 | -78.79278 | 423 ft | 13 kts | 168° |
| 2026-05-07 03:04 | 35.87912 | -78.79328 | 430 ft | 14 kts | 224° |
| 2026-05-07 03:04 | 35.87837 | -78.79421 | 417 ft | 17 kts | 224° |
| 2026-05-07 03:05 | 35.87747 | -78.79535 | 424 ft | 20 kts | 224° |
| 2026-05-07 03:05 | 35.87662 | -78.79626 | 421 ft | 13 kts | 198° |
| 2026-05-07 03:05 | 35.87618 | -78.79600 | 423 ft | 2 kts | 135° |
| 2026-05-07 03:05 | 35.87611 | -78.79592 | 422 ft | 0 kts | 136° |